Time;durP1;ratioP1;P1;durP2;ratioP2;P2;SDS_P1;SDS_P2;PMS_P1;PMS_P2;Temp;Humidity;BMP_temperature;BMP_pressure;BME280_temperature;BME280_humidity;BME280_pressure;Samples;Min_cycle;Max_cycle;Signal;HPM_P1;HPM_P2
2022/10/20 00:01:38;;;;;;;2.17;2.05;;;;;;;;;;5034606;28;20289;-82
2022/10/20 00:04:05;;;;;;;2.38;2.25;;;;;;;;;;5034653;28;20194;-82
2022/10/20 00:06:34;;;;;;;2.45;2.15;;;;;;;;;;5034958;28;20309;-82
2022/10/20 00:09:03;;;;;;;2.58;2.38;;;;;;;;;;5034281;28;20724;-82
2022/10/20 00:11:31;;;;;;;3.13;2.55;;;;;;;;;;5035386;28;20569;-82
2022/10/20 00:14:01;;;;;;;3.15;2.95;;;;;;;;;;5035353;28;20236;-82
2022/10/20 00:16:32;;;;;;;2.60;2.40;;;;;;;;;;5035671;28;20228;-81
2022/10/20 00:19:00;;;;;;;3.53;3.22;;;;;;;;;;5034640;28;20208;-82
2022/10/20 00:21:29;;;;;;;3.15;2.95;;;;;;;;;;5034646;28;20210;-82
2022/10/20 00:23:59;;;;;;;2.85;2.65;;;;;;;;;;5034994;28;20194;-82
2022/10/20 00:26:28;;;;;;;4.05;3.75;;;;;;;;;;5035278;28;20231;-82
2022/10/20 00:28:56;;;;;;;4.10;3.58;;;;;;;;;;5034425;28;20233;-83
2022/10/20 00:31:25;;;;;;;2.50;2.30;;;;;;;;;;5034850;28;20234;-82
2022/10/20 00:33:55;;;;;;;3.35;3.05;;;;;;;;;;5034553;28;20236;-80
2022/10/20 00:36:23;;;;;;;1.95;1.85;;;;;;;;;;5024935;28;20579;-84
2022/10/20 00:38:56;;;;;;;2.80;2.60;;;;;;;;;;5018097;28;20298;-83
2022/10/20 00:41:23;;;;;;;2.25;2.08;;;;;;;;;;5018192;28;20187;-83
2022/10/20 00:43:54;;;;;;;2.40;2.30;;;;;;;;;;5018834;28;20209;-85
2022/10/20 00:46:25;;;;;;;3.70;2.92;;;;;;;;;;5018022;28;20257;-84
2022/10/20 00:48:58;;;;;;;2.60;2.40;;;;;;;;;;5018765;28;20191;-84
2022/10/20 00:51:29;;;;;;;2.58;2.38;;;;;;;;;;5018270;28;20183;-84
2022/10/20 00:54:01;;;;;;;2.10;2.00;;;;;;;;;;5018148;28;20722;-84
2022/10/20 00:56:28;;;;;;;2.33;2.13;;;;;;;;;;5018539;28;20284;-84
2022/10/20 00:58:56;;;;;;;2.00;1.90;;;;;;;;;;5018037;28;20675;-84
2022/10/20 01:01:23;;;;;;;2.65;1.80;;;;;;;;;;5018090;28;20695;-83
2022/10/20 01:03:52;;;;;;;2.05;1.95;;;;;;;;;;5018502;28;20653;-84
2022/10/20 01:06:23;;;;;;;2.42;2.03;;;;;;;;;;5028922;28;20804;-83
2022/10/20 01:08:52;;;;;;;2.10;1.90;;;;;;;;;;5037871;28;20191;-83
2022/10/20 01:11:27;;;;;;;1.42;1.42;;;;;;;;;;5038305;28;20204;-83
2022/10/20 01:14:27;;;;;;;1.55;1.45;;;;;;;;;;5038155;28;20193;-84
2022/10/20 01:17:01;;;;;;;1.25;1.25;;;;;;;;;;5018936;28;20219;-82
2022/10/20 01:20:19;;;;;;;1.85;1.58;;;;;;;;;;5037386;28;20222;-84
2022/10/20 01:23:28;;;;;;;2.00;1.90;;;;;;;;;;5038183;28;20269;-82
2022/10/20 01:26:13;;;;;;;2.17;1.98;;;;;;;;;;5035977;28;20218;-83
2022/10/20 01:28:46;;;;;;;1.60;1.50;;;;;;;;;;5038328;28;20190;-83
2022/10/20 01:31:20;;;;;;;1.75;1.65;;;;;;;;;;5038098;28;20193;-81
2022/10/20 01:33:55;;;;;;;1.85;1.75;;;;;;;;;;5037891;28;20188;-82
2022/10/20 01:36:28;;;;;;;1.70;1.60;;;;;;;;;;5037558;28;20312;-82
2022/10/20 01:39:01;;;;;;;2.45;2.30;;;;;;;;;;5037639;28;20285;-83
2022/10/20 01:41:33;;;;;;;2.28;2.08;;;;;;;;;;5037963;28;20197;-83
2022/10/20 01:44:04;;;;;;;2.13;2.03;;;;;;;;;;5038238;28;20603;-82
2022/10/20 01:46:32;;;;;;;2.42;2.33;;;;;;;;;;5037386;28;20229;-83
2022/10/20 01:49:01;;;;;;;2.70;2.50;;;;;;;;;;5036693;28;20263;-83
2022/10/20 01:51:28;;;;;;;2.45;2.33;;;;;;;;;;5037364;28;20626;-83
2022/10/20 01:53:56;;;;;;;2.05;1.95;;;;;;;;;;5037523;28;20707;-83
2022/10/20 01:56:30;;;;;;;2.63;2.45;;;;;;;;;;5037357;28;20313;-83
2022/10/20 01:59:21;;;;;;;3.40;2.88;;;;;;;;;;5038958;28;20201;-82
2022/10/20 02:02:12;;;;;;;3.00;2.80;;;;;;;;;;5038545;28;20592;-83
2022/10/20 02:04:55;;;;;;;3.15;2.30;;;;;;;;;;5039298;28;20297;-82
2022/10/20 02:07:26;;;;;;;1.98;1.88;;;;;;;;;;5038419;28;20262;-83
2022/10/20 02:09:57;;;;;;;2.00;1.90;;;;;;;;;;5038688;28;20699;-82
2022/10/20 02:12:28;;;;;;;1.80;1.70;;;;;;;;;;5038116;28;20198;-82
2022/10/20 02:14:57;;;;;;;2.15;2.00;;;;;;;;;;5038477;28;20852;-83
2022/10/20 02:17:24;;;;;;;2.22;2.03;;;;;;;;;;5038830;28;20265;-82
2022/10/20 02:19:53;;;;;;;2.28;2.17;;;;;;;;;;5038347;28;20238;-83
2022/10/20 02:22:21;;;;;;;2.42;2.33;;;;;;;;;;5038172;28;20297;-82
2022/10/20 02:24:50;;;;;;;2.53;2.33;;;;;;;;;;5038276;28;20198;-82
2022/10/20 02:27:23;;;;;;;1.90;1.80;;;;;;;;;;5038567;28;20232;-82
2022/10/20 02:29:56;;;;;;;2.55;2.35;;;;;;;;;;5037702;28;20689;-81
2022/10/20 02:32:25;;;;;;;3.90;3.60;;;;;;;;;;5039068;28;20190;-83
2022/10/20 02:34:52;;;;;;;3.35;3.05;;;;;;;;;;5038346;28;20202;-83
2022/10/20 02:37:20;;;;;;;4.82;4.40;;;;;;;;;;5037931;28;20329;-83
2022/10/20 02:39:47;;;;;;;5.38;4.97;;;;;;;;;;5037389;28;20620;-83
2022/10/20 02:42:16;;;;;;;6.10;5.53;;;;;;;;;;5037463;28;20198;-83
2022/10/20 02:44:43;;;;;;;8.23;7.57;;;;;;;;;;5038028;28;20639;-82
2022/10/20 02:47:12;;;;;;;9.27;7.85;;;;;;;;;;5038012;28;20222;-83
2022/10/20 02:49:39;;;;;;;11.95;9.88;;;;;;;;;;5037203;28;20346;-83
2022/10/20 02:52:07;;;;;;;13.43;10.65;;;;;;;;;;5036830;28;20625;-83
2022/10/20 02:54:34;;;;;;;9.93;9.05;;;;;;;;;;5036410;28;20830;-84
2022/10/20 02:57:02;;;;;;;9.45;8.65;;;;;;;;;;5036188;28;20721;-84
2022/10/20 02:59:29;;;;;;;8.40;7.70;;;;;;;;;;5035343;28;20293;-83
2022/10/20 03:01:57;;;;;;;8.48;7.72;;;;;;;;;;5037312;28;20289;-82
2022/10/20 03:04:26;;;;;;;7.38;6.68;;;;;;;;;;5037055;28;20293;-84
2022/10/20 03:06:53;;;;;;;7.47;6.88;;;;;;;;;;5052557;28;20225;-84
2022/10/20 03:09:21;;;;;;;7.40;6.72;;;;;;;;;;5056396;28;20229;-83
2022/10/20 03:11:49;;;;;;;6.82;6.13;;;;;;;;;;5057350;28;20450;-84
2022/10/20 03:14:16;;;;;;;6.70;6.18;;;;;;;;;;5057306;28;20244;-83
2022/10/20 03:16:44;;;;;;;8.48;7.68;;;;;;;;;;5056910;28;20229;-83
2022/10/20 03:19:11;;;;;;;8.52;7.82;;;;;;;;;;5057089;28;20289;-82
2022/10/20 03:21:40;;;;;;;6.40;5.90;;;;;;;;;;5056960;28;20229;-82
2022/10/20 03:24:08;;;;;;;6.00;5.50;;;;;;;;;;5057235;28;20236;-82
2022/10/20 03:26:35;;;;;;;5.50;5.10;;;;;;;;;;5056957;28;20253;-81
2022/10/20 03:29:03;;;;;;;4.95;4.55;;;;;;;;;;5056039;28;20240;-82
2022/10/20 03:31:30;;;;;;;4.80;4.40;;;;;;;;;;5056609;28;20289;-82
2022/10/20 03:33:58;;;;;;;6.03;5.15;;;;;;;;;;5057137;28;20292;-82
2022/10/20 03:36:25;;;;;;;4.85;4.45;;;;;;;;;;5044113;28;20261;-82
2022/10/20 03:38:54;;;;;;;5.13;4.72;;;;;;;;;;5036454;28;20218;-81
2022/10/20 03:41:21;;;;;;;5.40;5.00;;;;;;;;;;5037127;28;20238;-82
2022/10/20 03:43:49;;;;;;;6.07;5.57;;;;;;;;;;5036785;28;20206;-83
2022/10/20 03:46:16;;;;;;;4.75;4.32;;;;;;;;;;5035949;28;20305;-83
2022/10/20 03:48:44;;;;;;;5.57;5.15;;;;;;;;;;5036244;28;20742;-82
2022/10/20 03:51:13;;;;;;;4.45;4.15;;;;;;;;;;5035467;28;20237;-84
2022/10/20 03:53:41;;;;;;;5.32;4.82;;;;;;;;;;5035129;28;20564;-84
2022/10/20 03:56:12;;;;;;;5.45;5.05;;;;;;;;;;5034935;28;20229;-84
2022/10/20 03:58:40;;;;;;;6.60;6.00;;;;;;;;;;5035224;28;20190;-84
2022/10/20 04:01:09;;;;;;;6.10;5.57;;;;;;;;;;5034910;28;20284;-84
2022/10/20 04:03:37;;;;;;;5.53;4.93;;;;;;;;;;5035211;28;20576;-84
2022/10/20 04:06:05;;;;;;;5.90;5.38;;;;;;;;;;5043387;28;20313;-83
2022/10/20 04:08:32;;;;;;;6.43;5.80;;;;;;;;;;5055234;28;20212;-83
2022/10/20 04:11:00;;;;;;;7.38;6.70;;;;;;;;;;5056096;28;20210;-83
2022/10/20 04:13:29;;;;;;;7.13;6.43;;;;;;;;;;5054896;28;20233;-84
2022/10/20 04:15:56;;;;;;;7.32;6.72;;;;;;;;;;5054151;28;20229;-85
2022/10/20 04:18:24;;;;;;;6.90;6.20;;;;;;;;;;5054659;28;20288;-84
2022/10/20 04:20:51;;;;;;;7.10;6.40;;;;;;;;;;5055002;28;20229;-82
2022/10/20 04:23:19;;;;;;;7.20;6.50;;;;;;;;;;5055521;28;20738;-82
2022/10/20 04:25:47;;;;;;;5.88;5.28;;;;;;;;;;5054777;28;20232;-82
2022/10/20 04:28:16;;;;;;;4.60;4.20;;;;;;;;;;5055683;28;20241;-83
2022/10/20 04:30:45;;;;;;;4.40;4.10;;;;;;;;;;5055961;28;20208;-82
2022/10/20 04:33:13;;;;;;;5.38;4.88;;;;;;;;;;5055225;28;20210;-82
2022/10/20 04:35:41;;;;;;;3.85;3.53;;;;;;;;;;5049725;28;20293;-83
2022/10/20 04:38:08;;;;;;;3.28;3.00;;;;;;;;;;5039933;28;20224;-83
2022/10/20 04:40:36;;;;;;;3.15;2.95;;;;;;;;;;5053734;28;20240;-80
2022/10/20 04:43:04;;;;;;;2.33;2.22;;;;;;;;;;5054492;28;20197;-82
2022/10/20 04:45:32;;;;;;;2.97;2.75;;;;;;;;;;5054335;28;20285;-84
2022/10/20 04:48:02;;;;;;;3.38;2.85;;;;;;;;;;5053312;28;20281;-82
2022/10/20 04:50:29;;;;;;;6.22;2.65;;;;;;;;;;5054700;28;20685;-84
2022/10/20 04:52:58;;;;;;;3.92;3.55;;;;;;;;;;5056506;28;20237;-84
2022/10/20 04:55:26;;;;;;;3.78;3.47;;;;;;;;;;5057100;28;20201;-82
2022/10/20 04:57:53;;;;;;;3.85;3.20;;;;;;;;;;5054985;28;20293;-84
2022/10/20 05:00:21;;;;;;;4.38;3.70;;;;;;;;;;5055155;28;20237;-84
2022/10/20 05:02:48;;;;;;;2.83;2.63;;;;;;;;;;5054167;28;20634;-83
2022/10/20 05:05:17;;;;;;;2.92;2.72;;;;;;;;;;5049993;28;20233;-83
2022/10/20 05:07:44;;;;;;;3.75;3.45;;;;;;;;;;5014138;28;20279;-84
2022/10/20 05:10:12;;;;;;;3.75;3.45;;;;;;;;;;5015351;28;20242;-82
2022/10/20 05:12:40;;;;;;;8.93;3.92;;;;;;;;;;5014660;28;20187;-83
2022/10/20 05:15:08;;;;;;;4.60;4.20;;;;;;;;;;5014039;28;20618;-82
2022/10/20 05:17:36;;;;;;;4.50;4.13;;;;;;;;;;5014870;28;20227;-83
2022/10/20 05:20:04;;;;;;;4.43;4.03;;;;;;;;;;5015116;28;20297;-85
2022/10/20 05:22:33;;;;;;;6.13;4.93;;;;;;;;;;5016766;28;20205;-82
2022/10/20 05:25:00;;;;;;;5.32;4.88;;;;;;;;;;5021897;28;20290;-83
2022/10/20 05:27:28;;;;;;;5.68;5.18;;;;;;;;;;5021402;28;20274;-83
2022/10/20 05:29:55;;;;;;;6.75;6.15;;;;;;;;;;5022313;28;20294;-84
2022/10/20 05:32:23;;;;;;;8.90;4.82;;;;;;;;;;5022129;28;20231;-83
2022/10/20 05:34:50;;;;;;;5.55;5.05;;;;;;;;;;5022157;28;20234;-83
2022/10/20 05:37:18;;;;;;;5.65;5.15;;;;;;;;;;5039969;28;20234;-83
2022/10/20 05:39:47;;;;;;;5.50;4.88;;;;;;;;;;5048119;28;20230;-84
2022/10/20 05:42:14;;;;;;;7.35;4.82;;;;;;;;;;5041573;28;20244;-83
2022/10/20 05:44:42;;;;;;;4.45;4.05;;;;;;;;;;5025539;28;20729;-82
2022/10/20 05:47:09;;;;;;;4.47;4.07;;;;;;;;;;5020593;28;20257;-83
2022/10/20 05:49:37;;;;;;;4.63;4.18;;;;;;;;;;5020977;28;20290;-82
2022/10/20 05:52:04;;;;;;;4.32;3.92;;;;;;;;;;5021219;28;20731;-83
2022/10/20 05:54:32;;;;;;;5.40;3.92;;;;;;;;;;5021241;28;20298;-82
2022/10/20 05:57:01;;;;;;;4.35;3.95;;;;;;;;;;5021441;28;20226;-83
2022/10/20 05:59:28;;;;;;;4.20;3.80;;;;;;;;;;5021032;28;20203;-83
2022/10/20 06:01:56;;;;;;;4.10;3.58;;;;;;;;;;5018566;28;20290;-84
2022/10/20 06:04:26;;;;;;;4.30;3.85;;;;;;;;;;5020850;28;20203;-85
2022/10/20 06:06:55;;;;;;;4.15;3.78;;;;;;;;;;5035055;28;20226;-82
2022/10/20 06:09:23;;;;;;;5.65;5.15;;;;;;;;;;5038294;28;20261;-83
2022/10/20 06:11:51;;;;;;;8.85;7.95;;;;;;;;;;5037202;28;20202;-83
2022/10/20 06:14:21;;;;;;;9.02;7.20;;;;;;;;;;5038788;28;20206;-82
2022/10/20 06:16:51;;;;;;;7.40;6.78;;;;;;;;;;5038404;28;20233;-83
2022/10/20 06:19:19;;;;;;;8.05;6.82;;;;;;;;;;5037029;28;20256;-82
2022/10/20 06:21:47;;;;;;;7.72;6.22;;;;;;;;;;5037620;28;20293;-82
2022/10/20 06:24:15;;;;;;;6.78;6.18;;;;;;;;;;5037175;28;20198;-82
2022/10/20 06:26:44;;;;;;;6.25;5.70;;;;;;;;;;5037034;28;20222;-81
2022/10/20 06:29:15;;;;;;;7.25;6.57;;;;;;;;;;5037266;28;20573;-82
2022/10/20 06:31:46;;;;;;;5.93;5.43;;;;;;;;;;5037333;28;20277;-82
2022/10/20 06:34:17;;;;;;;5.93;5.43;;;;;;;;;;5035801;28;20210;-82
2022/10/20 06:36:45;;;;;;;6.65;5.75;;;;;;;;;;5035770;28;20266;-83
2022/10/20 06:39:17;;;;;;;5.38;4.95;;;;;;;;;;5021791;28;20227;-82
2022/10/20 06:41:49;;;;;;;5.63;4.70;;;;;;;;;;5016375;28;20203;-84
2022/10/20 06:44:17;;;;;;;5.50;5.07;;;;;;;;;;5017012;28;20191;-82
2022/10/20 06:46:46;;;;;;;5.97;4.85;;;;;;;;;;5016872;28;20219;-83
2022/10/20 06:49:14;;;;;;;6.70;4.95;;;;;;;;;;5017735;28;20294;-82
2022/10/20 06:51:42;;;;;;;6.60;6.00;;;;;;;;;;5018894;28;20720;-83
2022/10/20 06:54:09;;;;;;;7.25;6.55;;;;;;;;;;5019636;28;20644;-84
2022/10/20 06:56:37;;;;;;;6.28;5.68;;;;;;;;;;5021755;28;20261;-84
2022/10/20 06:59:05;;;;;;;6.85;5.57;;;;;;;;;;5020871;28;20258;-84
2022/10/20 07:01:35;;;;;;;6.53;5.93;;;;;;;;;;5019949;28;20258;-84
2022/10/20 07:04:07;;;;;;;6.88;5.72;;;;;;;;;;5021994;28;20199;-83
2022/10/20 07:06:37;;;;;;;7.00;6.30;;;;;;;;;;5032260;28;20222;-83
2022/10/20 07:09:07;;;;;;;6.65;5.85;;;;;;;;;;5039816;28;20281;-84
2022/10/20 07:11:35;;;;;;;6.30;5.20;;;;;;;;;;5040127;28;20210;-83
2022/10/20 07:14:03;;;;;;;7.55;6.10;;;;;;;;;;5039578;28;20266;-83
2022/10/20 07:16:33;;;;;;;5.47;4.97;;;;;;;;;;5040450;28;20723;-84
2022/10/20 07:19:01;;;;;;;6.88;5.95;;;;;;;;;;5039909;28;20621;-84
2022/10/20 07:21:31;;;;;;;5.75;5.15;;;;;;;;;;5036206;28;20216;-81
2022/10/20 07:24:00;;;;;;;6.03;5.07;;;;;;;;;;5036394;28;20266;-83
2022/10/20 07:26:29;;;;;;;4.90;4.40;;;;;;;;;;5036051;28;20226;-83
2022/10/20 07:28:59;;;;;;;7.82;5.15;;;;;;;;;;5036016;28;20194;-84
2022/10/20 07:31:30;;;;;;;6.55;5.50;;;;;;;;;;5019643;28;20199;-83
2022/10/20 07:33:59;;;;;;;6.47;5.95;;;;;;;;;;5036366;28;20224;-83
2022/10/20 07:36:31;;;;;;;6.88;6.28;;;;;;;;;;5038253;28;20226;-82
2022/10/20 07:39:00;;;;;;;7.45;6.75;;;;;;;;;;5035234;28;20233;-82
2022/10/20 07:41:28;;;;;;;8.10;7.38;;;;;;;;;;5036854;28;20198;-82
2022/10/20 07:43:57;;;;;;;6.63;6.03;;;;;;;;;;5035775;28;20676;-83
2022/10/20 07:46:25;;;;;;;9.10;6.30;;;;;;;;;;5036248;28;20290;-82
2022/10/20 07:48:53;;;;;;;6.15;5.55;;;;;;;;;;5036516;28;20183;-83
2022/10/20 07:51:31;;;;;;;6.05;5.45;;;;;;;;;;5036349;28;20706;-82
2022/10/20 07:54:01;;;;;;;8.20;5.22;;;;;;;;;;5037145;28;20202;-82
2022/10/20 07:56:29;;;;;;;5.38;4.75;;;;;;;;;;5053996;23;20265;-80
2022/10/20 07:58:57;;;;;;;5.50;4.90;;;;;;;;;;5014190;28;20234;-80
2022/10/20 08:01:25;;;;;;;5.28;4.65;;;;;;;;;;5014333;28;20554;-79
2022/10/20 08:03:52;;;;;;;5.25;4.75;;;;;;;;;;5013977;28;20281;-80
2022/10/20 08:06:20;;;;;;;6.60;5.57;;;;;;;;;;5014914;28;20249;-81
2022/10/20 08:08:49;;;;;;;5.65;5.15;;;;;;;;;;5014830;28;20286;-80
2022/10/20 08:11:17;;;;;;;5.88;5.38;;;;;;;;;;5015261;28;20205;-80
2022/10/20 08:13:44;;;;;;;4.78;4.30;;;;;;;;;;5015402;28;20626;-79
2022/10/20 08:16:14;;;;;;;7.35;5.57;;;;;;;;;;5015284;28;20306;-80
2022/10/20 08:18:42;;;;;;;6.47;4.88;;;;;;;;;;5013670;28;20233;-80
2022/10/20 08:21:12;;;;;;;6.15;4.75;;;;;;;;;;5014891;28;20202;-80
2022/10/20 08:23:40;;;;;;;5.70;4.97;;;;;;;;;;5014632;28;20196;-80
2022/10/20 08:26:10;;;;;;;5.50;5.00;;;;;;;;;;5014103;28;20223;-83
2022/10/20 08:28:38;;;;;;;5.82;5.25;;;;;;;;;;5013788;28;20206;-81
2022/10/20 08:31:07;;;;;;;7.57;5.28;;;;;;;;;;5014051;28;20297;-79
2022/10/20 08:33:35;;;;;;;4.00;3.67;;;;;;;;;;5014143;28;20195;-81
2022/10/20 08:36:04;;;;;;;5.78;4.30;;;;;;;;;;5012362;28;20249;-80
2022/10/20 08:38:32;;;;;;;4.68;4.28;;;;;;;;;;5013609;28;20223;-80
2022/10/20 08:41:00;;;;;;;5.85;4.10;;;;;;;;;;5013625;28;20666;-80
2022/10/20 08:43:31;;;;;;;4.70;4.30;;;;;;;;;;5014354;28;20693;-79
2022/10/20 08:46:00;;;;;;;4.45;4.05;;;;;;;;;;5012113;28;20227;-80
2022/10/20 08:48:30;;;;;;;4.28;3.90;;;;;;;;;;5014071;28;20286;-79
2022/10/20 08:50:58;;;;;;;4.85;3.35;;;;;;;;;;5014830;28;20294;-80
2022/10/20 08:53:26;;;;;;;4.57;4.18;;;;;;;;;;5014858;28;20206;-81
2022/10/20 08:55:55;;;;;;;4.72;4.38;;;;;;;;;;5014135;28;20222;-79
2022/10/20 08:58:25;;;;;;;4.50;4.10;;;;;;;;;;5017336;28;20199;-81
2022/10/20 09:00:59;;;;;;;4.22;3.88;;;;;;;;;;5019761;28;20202;-81
2022/10/20 09:03:31;;;;;;;4.97;4.47;;;;;;;;;;5023968;28;20277;-81
2022/10/20 09:06:03;;;;;;;4.80;3.85;;;;;;;;;;5031246;28;20699;-80
2022/10/20 09:08:31;;;;;;;3.67;3.38;;;;;;;;;;5019078;28;20213;-81
2022/10/20 09:11:01;;;;;;;3.72;3.42;;;;;;;;;;5018706;28;20305;-81
2022/10/20 09:13:31;;;;;;;4.80;4.22;;;;;;;;;;5017597;28;20207;-80
2022/10/20 09:16:03;;;;;;;4.72;4.32;;;;;;;;;;5021742;28;20229;-81
2022/10/20 09:18:31;;;;;;;4.38;3.97;;;;;;;;;;5016422;28;20207;-80
2022/10/20 09:21:01;;;;;;;4.32;3.92;;;;;;;;;;5016831;28;20235;-80
2022/10/20 09:23:34;;;;;;;5.28;4.78;;;;;;;;;;5018139;28;20682;-82
2022/10/20 09:26:02;;;;;;;5.90;5.30;;;;;;;;;;5018065;28;20227;-81
2022/10/20 09:28:29;;;;;;;21.98;11.65;;;;;;;;;;5017236;28;20297;-81
2022/10/20 09:30:59;;;;;;;12.38;7.72;;;;;;;;;;5017727;28;20200;-81
2022/10/20 09:33:32;;;;;;;5.60;4.72;;;;;;;;;;5017634;28;20205;-81
2022/10/20 09:36:05;;;;;;;5.07;4.57;;;;;;;;;;5017424;28;20306;-81
2022/10/20 09:38:34;;;;;;;4.72;4.32;;;;;;;;;;5017125;28;20430;-81
2022/10/20 09:41:13;;;;;;;4.13;3.83;;;;;;;;;;5016870;28;20223;-81
2022/10/20 09:43:47;;;;;;;4.65;3.80;;;;;;;;;;5016996;28;20302;-80
2022/10/20 09:46:20;;;;;;;4.82;4.30;;;;;;;;;;5017453;28;20228;-80
2022/10/20 09:48:49;;;;;;;5.68;4.10;;;;;;;;;;5017056;28;20237;-82
2022/10/20 09:51:21;;;;;;;5.47;5.03;;;;;;;;;;5017183;28;20225;-80
2022/10/20 09:53:54;;;;;;;5.50;4.38;;;;;;;;;;5017373;28;20211;-81
2022/10/20 09:56:31;;;;;;;4.35;3.70;;;;;;;;;;5016539;28;20240;-81
2022/10/20 09:59:00;;;;;;;7.57;4.35;;;;;;;;;;5016838;28;20228;-81
2022/10/20 10:01:29;;;;;;;4.22;3.55;;;;;;;;;;5016661;28;20293;-82
2022/10/20 10:04:00;;;;;;;3.97;3.67;;;;;;;;;;5016634;28;20285;-82
2022/10/20 10:06:32;;;;;;;3.30;3.10;;;;;;;;;;5016247;28;20235;-82
2022/10/20 10:09:01;;;;;;;4.60;4.00;;;;;;;;;;5016078;28;20217;-81
2022/10/20 10:11:34;;;;;;;3.85;3.47;;;;;;;;;;5016839;28;20295;-82
2022/10/20 10:14:02;;;;;;;3.70;3.40;;;;;;;;;;5015947;28;20297;-80
2022/10/20 10:16:40;;;;;;;4.20;3.80;;;;;;;;;;5015944;28;20223;-81
2022/10/20 10:19:12;;;;;;;4.40;3.30;;;;;;;;;;5015193;28;20586;-82
2022/10/20 10:21:45;;;;;;;4.05;3.55;;;;;;;;;;5015331;28;20195;-82
2022/10/20 10:24:36;;;;;;;3.08;2.83;;;;;;;;;;5015249;28;20206;-82
2022/10/20 10:27:04;;;;;;;4.13;3.83;;;;;;;;;;5015294;28;20195;-81
2022/10/20 10:29:35;;;;;;;4.80;3.83;;;;;;;;;;5014620;28;20486;-82
2022/10/20 10:32:15;;;;;;;6.63;3.50;;;;;;;;;;5015212;28;20597;-82
2022/10/20 10:35:12;;;;;;;5.63;5.13;;;;;;;;;;5015197;28;20586;-81
2022/10/20 10:37:42;;;;;;;5.00;4.43;;;;;;;;;;4997865;28;20214;-82
2022/10/20 10:40:15;;;;;;;4.45;4.05;;;;;;;;;;5014812;28;20219;-81
2022/10/20 10:43:00;;;;;;;3.17;2.88;;;;;;;;;;5014945;28;20207;-80
2022/10/20 10:45:43;;;;;;;8.32;7.18;;;;;;;;;;5014875;28;20219;-82
2022/10/20 10:48:27;;;;;;;5.50;4.35;;;;;;;;;;5014605;28;20205;-82
2022/10/20 10:50:58;;;;;;;4.43;3.90;;;;;;;;;;5014760;28;20194;-82
2022/10/20 10:53:40;;;;;;;4.65;4.25;;;;;;;;;;5014605;28;20205;-82
2022/10/20 10:56:16;;;;;;;4.15;3.85;;;;;;;;;;5013003;28;20277;-81
2022/10/20 10:58:50;;;;;;;5.20;3.45;;;;;;;;;;5014082;28;20700;-81
2022/10/20 11:01:39;;;;;;;4.03;3.38;;;;;;;;;;5013387;28;20228;-81
2022/10/20 11:04:47;;;;;;;3.13;2.90;;;;;;;;;;5014341;28;20206;-80
2022/10/20 11:07:22;;;;;;;3.60;3.30;;;;;;;;;;5014694;28;20215;-82
2022/10/20 11:10:05;;;;;;;3.88;3.47;;;;;;;;;;5015146;28;20207;-80
2022/10/20 11:12:46;;;;;;;3.00;2.80;;;;;;;;;;5014300;28;20213;-82
2022/10/20 11:15:32;;;;;;;3.60;2.90;;;;;;;;;;5014773;28;20644;-81
2022/10/20 11:18:09;;;;;;;4.55;4.15;;;;;;;;;;5014159;28;20321;-82
2022/10/20 11:20:43;;;;;;;3.60;3.30;;;;;;;;;;5013236;28;20226;-82
2022/10/20 11:23:50;;;;;;;5.50;4.15;;;;;;;;;;5013806;28;20206;-81
2022/10/20 11:26:24;;;;;;;4.32;3.42;;;;;;;;;;4981352;28;20218;-82
2022/10/20 11:28:53;;;;;;;4.28;3.30;;;;;;;;;;5014751;28;20579;-81
2022/10/20 11:31:26;;;;;;;4.10;3.80;;;;;;;;;;5014171;28;20203;-81
2022/10/20 11:34:00;;;;;;;3.95;3.55;;;;;;;;;;5014709;28;20211;-82
2022/10/20 11:36:35;;;;;;;4.25;3.85;;;;;;;;;;5014021;28;20227;-81
2022/10/20 11:39:05;;;;;;;3.60;3.30;;;;;;;;;;5014182;28;20225;-82
2022/10/20 11:41:38;;;;;;;3.63;3.38;;;;;;;;;;5013338;28;20214;-81
2022/10/20 11:44:08;;;;;;;4.35;3.63;;;;;;;;;;5014630;28;20207;-81
2022/10/20 11:46:42;;;;;;;3.13;2.78;;;;;;;;;;5015503;28;20227;-81
2022/10/20 11:49:11;;;;;;;3.55;3.25;;;;;;;;;;5016241;28;20203;-82
2022/10/20 11:52:17;;;;;;;3.65;3.35;;;;;;;;;;5013181;28;20265;-81
2022/10/20 11:55:20;;;;;;;3.75;2.88;;;;;;;;;;5010087;28;20218;-82
2022/10/20 11:58:19;;;;;;;2.88;2.63;;;;;;;;;;5013221;28;20667;-82
2022/10/20 12:01:00;;;;;;;3.00;2.80;;;;;;;;;;5013263;28;20226;-82
2022/10/20 12:03:50;;;;;;;4.82;3.42;;;;;;;;;;5013498;28;20205;-82
2022/10/20 12:06:48;;;;;;;3.70;3.40;;;;;;;;;;5013174;28;20230;-82
2022/10/20 12:09:34;;;;;;;4.22;3.28;;;;;;;;;;5014178;28;20213;-82
2022/10/20 12:12:04;;;;;;;3.50;3.20;;;;;;;;;;5013689;28;20203;-83
2022/10/20 12:14:36;;;;;;;6.18;4.20;;;;;;;;;;5013384;28;20253;-83
2022/10/20 12:17:27;;;;;;;3.35;2.92;;;;;;;;;;5032411;23;20198;-80
2022/10/20 12:20:48;;;;;;;3.78;3.35;;;;;;;;;;5069215;28;20201;-79
2022/10/20 12:23:56;;;;;;;2.67;2.47;;;;;;;;;;5057143;28;20196;-81
2022/10/20 12:27:27;;;;;;;3.25;2.95;;;;;;;;;;5072135;28;20292;-81
2022/10/20 12:30:01;;;;;;;2.30;2.20;;;;;;;;;;5044059;28;20305;-81
2022/10/20 12:32:59;;;;;;;2.92;2.72;;;;;;;;;;5057973;28;20197;-82
2022/10/20 12:35:53;;;;;;;5.88;3.78;;;;;;;;;;5055578;28;20241;-81
2022/10/20 12:38:23;;;;;;;3.55;3.28;;;;;;;;;;5033304;28;20229;-81
2022/10/20 12:40:58;;;;;;;4.63;3.35;;;;;;;;;;5038740;28;20228;-80
2022/10/20 12:43:33;;;;;;;3.13;2.85;;;;;;;;;;5039306;28;20198;-81
2022/10/20 12:46:09;;;;;;;3.88;3.10;;;;;;;;;;5039641;28;20209;-83
2022/10/20 12:48:44;;;;;;;3.78;3.05;;;;;;;;;;5039795;28;20606;-83
2022/10/20 12:51:24;;;;;;;3.70;3.40;;;;;;;;;;5038480;28;20201;-81
2022/10/20 12:53:58;;;;;;;3.20;3.00;;;;;;;;;;5040955;28;20200;-81
2022/10/20 12:56:32;;;;;;;3.38;3.08;;;;;;;;;;5039063;28;20684;-81
2022/10/20 12:59:47;;;;;;;5.15;3.15;;;;;;;;;;5040043;28;20308;-81
2022/10/20 13:02:46;;;;;;;3.83;3.00;;;;;;;;;;5020150;28;20290;-83
2022/10/20 13:05:45;;;;;;;3.95;3.65;;;;;;;;;;5042738;28;20266;-82
2022/10/20 13:08:32;;;;;;;3.00;2.80;;;;;;;;;;4997990;28;20265;-84
2022/10/20 13:11:43;;;;;;;3.92;3.63;;;;;;;;;;5040405;28;20278;-81
2022/10/20 13:14:31;;;;;;;3.85;3.55;;;;;;;;;;5040474;28;20202;-81
2022/10/20 13:17:28;;;;;;;3.45;3.20;;;;;;;;;;5041871;28;20194;-81
2022/10/20 13:19:59;;;;;;;4.75;3.58;;;;;;;;;;5035186;28;20591;-81
2022/10/20 13:22:46;;;;;;;4.45;3.50;;;;;;;;;;5040645;28;20218;-82
2022/10/20 13:25:39;;;;;;;3.45;3.15;;;;;;;;;;5040396;28;20222;-82
2022/10/20 13:28:18;;;;;;;3.78;3.47;;;;;;;;;;5040156;28;20314;-82
2022/10/20 13:31:12;;;;;;;3.20;2.90;;;;;;;;;;5041187;28;20210;-84
2022/10/20 13:33:49;;;;;;;3.15;2.58;;;;;;;;;;5041665;28;20245;-83
2022/10/20 13:36:24;;;;;;;3.10;2.88;;;;;;;;;;5040576;28;20213;-82
2022/10/20 13:38:57;;;;;;;4.93;3.65;;;;;;;;;;5032344;28;20227;-82
2022/10/20 13:41:33;;;;;;;3.38;3.05;;;;;;;;;;5037177;28;20218;-81
2022/10/20 13:44:09;;;;;;;3.28;2.97;;;;;;;;;;5034749;28;20669;-81
2022/10/20 13:46:47;;;;;;;3.08;2.80;;;;;;;;;;5034556;28;20208;-80
2022/10/20 13:49:48;;;;;;;3.90;3.60;;;;;;;;;;5034956;28;20401;-80
2022/10/20 13:52:16;;;;;;;3.35;3.05;;;;;;;;;;5030538;28;20206;-80
2022/10/20 13:54:47;;;;;;;3.13;2.92;;;;;;;;;;5034533;28;20765;-82
2022/10/20 13:57:26;;;;;;;3.58;2.63;;;;;;;;;;5033926;28;20222;-80
2022/10/20 14:00:00;;;;;;;2.70;2.50;;;;;;;;;;5034325;28;20206;-81
2022/10/20 14:02:31;;;;;;;2.78;2.58;;;;;;;;;;5034197;28;20735;-80
2022/10/20 14:05:08;;;;;;;3.58;2.80;;;;;;;;;;5034428;28;20240;-82
2022/10/20 14:07:41;;;;;;;3.40;2.90;;;;;;;;;;5015678;28;20798;-82
2022/10/20 14:10:23;;;;;;;3.38;3.08;;;;;;;;;;5034320;28;20256;-81
2022/10/20 14:12:51;;;;;;;4.03;3.63;;;;;;;;;;5034402;28;20237;-81
2022/10/20 14:15:30;;;;;;;4.85;3.25;;;;;;;;;;5034500;28;20228;-82
2022/10/20 14:18:01;;;;;;;7.75;4.70;;;;;;;;;;5034204;28;20234;-80
2022/10/20 14:20:30;;;;;;;4.68;3.78;;;;;;;;;;5034146;28;20667;-81
2022/10/20 14:23:00;;;;;;;4.38;3.95;;;;;;;;;;5034492;28;20304;-80
2022/10/20 14:25:30;;;;;;;5.10;4.35;;;;;;;;;;5034070;28;20202;-81
2022/10/20 14:27:58;;;;;;;5.00;4.50;;;;;;;;;;5034244;28;20276;-80
2022/10/20 14:30:27;;;;;;;4.68;4.25;;;;;;;;;;5034362;28;20214;-82
2022/10/20 14:32:55;;;;;;;5.00;4.25;;;;;;;;;;5034329;28;20208;-81
2022/10/20 14:35:28;;;;;;;4.50;4.10;;;;;;;;;;5035863;28;20220;-82
2022/10/20 14:38:01;;;;;;;6.55;4.30;;;;;;;;;;5036281;28;20226;-80
2022/10/20 14:40:31;;;;;;;5.25;4.63;;;;;;;;;;5035529;28;20221;-80
2022/10/20 14:43:02;;;;;;;3.60;3.30;;;;;;;;;;5034530;28;20225;-80
2022/10/20 14:45:31;;;;;;;6.15;4.07;;;;;;;;;;5034443;28;20770;-80
2022/10/20 14:48:00;;;;;;;4.03;3.67;;;;;;;;;;5034465;28;20282;-80
2022/10/20 14:50:34;;;;;;;4.10;3.70;;;;;;;;;;5034093;28;20305;-81
2022/10/20 14:53:26;;;;;;;4.75;4.28;;;;;;;;;;5034530;28;20670;-81
2022/10/20 14:55:54;;;;;;;4.75;4.40;;;;;;;;;;5032861;28;20732;-81
2022/10/20 14:58:32;;;;;;;5.25;4.25;;;;;;;;;;5033605;28;20232;-82
2022/10/20 15:01:22;;;;;;;3.65;3.22;;;;;;;;;;5034054;28;20212;-81
2022/10/20 15:04:06;;;;;;;7.65;5.65;;;;;;;;;;5035392;28;20222;-82
2022/10/20 15:06:33;;;;;;;4.47;4.03;;;;;;;;;;5040916;28;20209;-81
2022/10/20 15:09:01;;;;;;;4.03;3.60;;;;;;;;;;5033020;28;20222;-83
2022/10/20 15:11:31;;;;;;;5.97;3.70;;;;;;;;;;5033408;28;20198;-81
2022/10/20 15:13:59;;;;;;;4.78;4.35;;;;;;;;;;5033571;28;20199;-81
2022/10/20 15:16:42;;;;;;;4.63;3.83;;;;;;;;;;5033551;28;20204;-81
2022/10/20 15:19:26;;;;;;;5.30;4.80;;;;;;;;;;5033253;28;20328;-82